createdAt,value
2022-10-10T00:01:18.962Z,97444.69
2022-10-10T00:03:47.365Z,97456.13
2022-10-10T00:06:16.504Z,97445.69
2022-10-10T00:08:44.974Z,97450.16
2022-10-10T00:11:14.983Z,97446.50
2022-10-10T00:13:43.781Z,97444.84
2022-10-10T00:16:12.472Z,97439.69
2022-10-10T00:18:42.843Z,97446.66
2022-10-10T00:21:11.882Z,97441.38
2022-10-10T00:23:40.301Z,97440.53
2022-10-10T00:26:09.443Z,97446.81
2022-10-10T00:28:39.051Z,97443.31
2022-10-10T00:31:08.849Z,97446.81
2022-10-10T00:33:37.253Z,97438.03
2022-10-10T00:36:08.000Z,97432.72
2022-10-10T00:38:36.731Z,97436.34
2022-10-10T00:41:05.539Z,97431.06
2022-10-10T00:43:34.716Z,97433.69
2022-10-10T00:46:03.248Z,97435.53
2022-10-10T00:48:33.401Z,97432.03
2022-10-10T00:51:03.843Z,97433.84
2022-10-10T00:53:36.083Z,97431.19
2022-10-10T00:56:05.556Z,97427.72
2022-10-10T00:58:34.616Z,97431.19
2022-10-10T01:01:03.060Z,97428.56
2022-10-10T01:03:31.635Z,97424.22
2022-10-10T01:06:00.738Z,97426.03
2022-10-10T01:08:29.318Z,97429.53
2022-10-10T01:11:08.294Z,97427.88
2022-10-10T01:13:41.741Z,97430.50
2022-10-10T01:16:15.484Z,97417.41
2022-10-10T01:18:48.060Z,97424.38
2022-10-10T01:21:24.377Z,97416.56
2022-10-10T01:24:05.456Z,97409.75
2022-10-10T01:27:00.932Z,97417.41
2022-10-10T01:29:32.618Z,97415.75
2022-10-10T01:32:05.821Z,97413.25
2022-10-10T01:34:39.925Z,97404.31
2022-10-10T01:37:15.326Z,97407.94
2022-10-10T01:39:50.476Z,97401.81
2022-10-10T01:42:21.653Z,97394.84
2022-10-10T01:44:53.858Z,97392.03
2022-10-10T01:47:22.928Z,97401.81
2022-10-10T01:49:53.655Z,97400.97
2022-10-10T01:52:31.001Z,97390.38
2022-10-10T01:55:21.261Z,97397.50
2022-10-10T01:57:58.409Z,97389.53
2022-10-10T02:00:28.410Z,97391.34
2022-10-10T02:02:58.892Z,97394.16
2022-10-10T02:05:31.006Z,97393.16
2022-10-10T02:08:02.457Z,97391.50
2022-10-10T02:10:33.732Z,97385.38
2022-10-10T02:13:03.893Z,97392.47
2022-10-10T02:15:38.028Z,97393.31
2022-10-10T02:18:07.743Z,97388.03
2022-10-10T02:20:36.641Z,97385.38
2022-10-10T02:23:05.918Z,97393.47
2022-10-10T02:25:38.853Z,97388.16
2022-10-10T02:28:10.897Z,97390.81
2022-10-10T02:30:45.254Z,97385.66
2022-10-10T02:33:15.394Z,97387.63
2022-10-10T02:35:45.833Z,97384.81
2022-10-10T02:38:15.506Z,97383.16
2022-10-10T02:40:46.368Z,97386.63
2022-10-10T02:43:15.649Z,97384.00
2022-10-10T02:45:45.280Z,97387.63
2022-10-10T02:48:13.612Z,97382.31
2022-10-10T02:50:42.083Z,97379.69
2022-10-10T02:53:10.532Z,97376.19
2022-10-10T02:55:38.870Z,97377.03
2022-10-10T02:58:07.400Z,97377.03
2022-10-10T03:00:35.868Z,97382.47
2022-10-10T03:03:05.596Z,97370.91
2022-10-10T03:05:34.113Z,97371.88
2022-10-10T03:08:02.650Z,97384.28
2022-10-10T03:10:31.208Z,97386.94
2022-10-10T03:12:59.611Z,97383.44
2022-10-10T03:15:28.014Z,97383.44
2022-10-10T03:17:56.485Z,97387.06
2022-10-10T03:20:26.199Z,97388.91
2022-10-10T03:22:54.466Z,97387.91
2022-10-10T03:25:23.115Z,97390.72
2022-10-10T03:27:51.437Z,97388.91
2022-10-10T03:30:19.768Z,97389.03
2022-10-10T03:32:48.388Z,97388.06
2022-10-10T03:35:17.196Z,97389.88
2022-10-10T03:37:46.885Z,97390.72
2022-10-10T03:40:15.370Z,97389.88
2022-10-10T03:42:43.683Z,97392.66
2022-10-10T03:45:12.188Z,97391.84
2022-10-10T03:47:40.542Z,97393.50
2022-10-10T03:50:10.010Z,97387.50
2022-10-10T03:52:38.413Z,97391.84
2022-10-10T03:55:09.079Z,97387.50
2022-10-10T03:57:37.584Z,97390.16
2022-10-10T04:00:06.947Z,97395.47
2022-10-10T04:02:35.350Z,97387.66
2022-10-10T04:05:04.735Z,97385.84
2022-10-10T04:07:33.616Z,97388.50
2022-10-10T04:10:02.264Z,97381.53
2022-10-10T04:12:31.994Z,97382.50
2022-10-10T04:15:00.462Z,97379.88
2022-10-10T04:17:29.278Z,97384.31
2022-10-10T04:19:57.625Z,97390.47
2022-10-10T04:22:26.006Z,97384.31
2022-10-10T04:24:54.546Z,97389.63
2022-10-10T04:27:23.221Z,97386.13
2022-10-10T04:29:52.882Z,97390.59
2022-10-10T04:32:21.322Z,97388.78
2022-10-10T04:34:50.385Z,97392.41
2022-10-10T04:37:18.780Z,97383.63
2022-10-10T04:39:47.314Z,97388.94
2022-10-10T04:42:16.027Z,97393.41
2022-10-10T04:44:44.352Z,97386.28
2022-10-10T04:47:15.229Z,97387.25
2022-10-10T04:49:43.572Z,97388.09
2022-10-10T04:52:12.551Z,97381.13
2022-10-10T04:54:41.096Z,97391.72
2022-10-10T04:57:09.607Z,97394.22
2022-10-10T04:59:38.057Z,97381.13
2022-10-10T05:02:06.661Z,97393.53
2022-10-10T05:04:36.368Z,97394.38
2022-10-10T05:07:05.591Z,97395.34
2022-10-10T05:09:35.727Z,97395.34
2022-10-10T05:12:04.562Z,97390.06
2022-10-10T05:14:33.025Z,97393.69
2022-10-10T05:17:01.432Z,97388.38
2022-10-10T05:19:29.822Z,97385.59
2022-10-10T05:21:59.703Z,97384.91
2022-10-10T05:24:28.334Z,97391.03
2022-10-10T05:26:56.824Z,97386.72
2022-10-10T05:29:25.455Z,97394.50
2022-10-10T05:31:53.952Z,97392.00
2022-10-10T05:34:22.404Z,97393.81
2022-10-10T05:36:50.824Z,97393.00
2022-10-10T05:39:20.519Z,97398.28
2022-10-10T05:41:48.955Z,97398.28
2022-10-10T05:44:17.372Z,97391.47
2022-10-10T05:46:45.860Z,97396.47
2022-10-10T05:49:14.378Z,97391.31
2022-10-10T05:51:42.718Z,97396.63
2022-10-10T05:54:11.141Z,97396.63
2022-10-10T05:56:40.841Z,97396.63
2022-10-10T05:59:09.454Z,97401.09
2022-10-10T06:01:38.195Z,97404.56
2022-10-10T06:04:06.639Z,97404.72
2022-10-10T06:06:35.209Z,97401.09
2022-10-10T06:09:03.607Z,97406.38
2022-10-10T06:11:32.227Z,97409.16
2022-10-10T06:14:01.905Z,97406.53
2022-10-10T06:16:30.486Z,97409.16
2022-10-10T06:18:59.077Z,97410.84
2022-10-10T06:21:28.096Z,97418.78
2022-10-10T06:23:57.176Z,97416.97
2022-10-10T06:26:25.604Z,97414.47
2022-10-10T06:28:54.037Z,97410.84
2022-10-10T06:31:23.841Z,97417.94
2022-10-10T06:33:53.176Z,97421.44
2022-10-10T06:36:21.616Z,97416.28
2022-10-10T06:38:50.117Z,97422.25
2022-10-10T06:41:18.939Z,97422.41
2022-10-10T06:43:49.001Z,97431.19
2022-10-10T06:46:19.041Z,97436.47
2022-10-10T06:48:49.637Z,97439.97
2022-10-10T06:51:18.772Z,97439.97
2022-10-10T06:53:47.425Z,97428.69
2022-10-10T06:56:26.392Z,97438.31
2022-10-10T06:58:56.313Z,97441.78
2022-10-10T07:01:26.430Z,97441.63
2022-10-10T07:03:56.398Z,97441.63
2022-10-10T07:06:24.856Z,97438.00
2022-10-10T07:08:53.595Z,97444.28
2022-10-10T07:11:22.301Z,97447.63
2022-10-10T07:13:53.602Z,97452.91
2022-10-10T07:16:23.125Z,97457.25
2022-10-10T07:18:51.613Z,97455.56
2022-10-10T07:21:21.423Z,97453.75
2022-10-10T07:23:49.826Z,97453.63
2022-10-10T07:26:22.133Z,97462.41
2022-10-10T07:28:50.690Z,97463.22
2022-10-10T07:31:19.226Z,97459.59
2022-10-10T07:33:50.789Z,97458.63
2022-10-10T07:36:20.970Z,97459.31
2022-10-10T07:38:52.151Z,97458.19
2022-10-10T07:41:21.278Z,97466.00
2022-10-10T07:43:55.439Z,97474.63
2022-10-10T07:46:24.145Z,97462.22
2022-10-10T07:48:52.641Z,97461.25
2022-10-10T07:51:22.354Z,97463.06
2022-10-10T07:53:52.700Z,97467.38
2022-10-10T07:56:21.831Z,97467.38
2022-10-10T07:58:51.926Z,97469.19
2022-10-10T08:01:21.433Z,97469.34
2022-10-10T08:03:50.001Z,97467.66
2022-10-10T08:06:19.037Z,97478.25
2022-10-10T08:08:52.229Z,97471.44
2022-10-10T08:11:21.934Z,97470.59
2022-10-10T08:13:50.891Z,97477.56
2022-10-10T08:16:19.901Z,97472.28
2022-10-10T08:18:51.160Z,97469.63
2022-10-10T08:21:19.781Z,97480.22
2022-10-10T08:23:49.798Z,97477.44
2022-10-10T08:26:19.957Z,97469.19
2022-10-10T08:28:48.790Z,97476.72
2022-10-10T08:31:19.890Z,97484.09
2022-10-10T08:33:49.563Z,97474.31
2022-10-10T08:36:19.654Z,97483.78
2022-10-10T08:38:49.895Z,97481.84
2022-10-10T08:41:23.859Z,97479.03
2022-10-10T08:43:55.296Z,97481.69
2022-10-10T08:46:33.321Z,97492.97
2022-10-10T08:49:13.932Z,97476.94
2022-10-10T08:51:44.087Z,97484.88
2022-10-10T08:54:14.645Z,97481.81
2022-10-10T08:56:43.407Z,97484.44
2022-10-10T08:59:16.007Z,97487.78
2022-10-10T09:02:20.100Z,97476.09
2022-10-10T09:04:46.486Z,97483.75
2022-10-10T09:07:22.513Z,97476.63
2022-10-10T09:09:58.921Z,97479.84
2022-10-10T09:12:35.505Z,97478.84
2022-10-10T09:15:12.891Z,97480.38
2022-10-10T09:17:45.328Z,97479.09
2022-10-10T09:20:43.110Z,97474.47
2022-10-10T09:23:20.736Z,97465.53
2022-10-10T09:25:54.855Z,97470.81
2022-10-10T09:28:37.398Z,97471.81
2022-10-10T09:31:10.563Z,97473.47
2022-10-10T09:33:42.018Z,97480.59
2022-10-10T09:36:14.877Z,97472.50
2022-10-10T09:38:45.887Z,97474.16
2022-10-10T09:41:18.899Z,97474.16
2022-10-10T09:43:48.201Z,97474.03
2022-10-10T09:46:16.867Z,97480.16
2022-10-10T09:48:45.611Z,97479.31
2022-10-10T09:51:17.297Z,97476.66
2022-10-10T09:53:47.456Z,97480.00
2022-10-10T09:56:20.811Z,97473.72
2022-10-10T09:58:51.371Z,97475.25
2022-10-10T10:01:21.298Z,97475.09
2022-10-10T10:04:23.500Z,97467.97
2022-10-10T10:07:05.806Z,97481.94
2022-10-10T10:09:35.997Z,97482.47
2022-10-10T10:12:07.361Z,97485.81
2022-10-10T10:14:38.213Z,97477.69
2022-10-10T10:17:08.477Z,97472.63
2022-10-10T10:19:39.480Z,97480.69
2022-10-10T10:22:26.701Z,97476.91
2022-10-10T10:24:56.056Z,97475.78
2022-10-10T10:27:28.178Z,97479.25
2022-10-10T10:29:58.357Z,97482.06
2022-10-10T10:32:44.759Z,97478.56
2022-10-10T10:35:24.854Z,97480.38
2022-10-10T10:38:09.686Z,97476.47
2022-10-10T10:40:42.190Z,97479.66
2022-10-10T10:43:40.627Z,97478.22
2022-10-10T10:46:18.164Z,97478.91
2022-10-10T10:48:48.161Z,97489.66
2022-10-10T10:51:43.865Z,97486.03
2022-10-10T10:54:25.140Z,97484.19
2022-10-10T10:57:01.970Z,97474.97
2022-10-10T11:00:22.483Z,97483.59
2022-10-10T11:03:05.947Z,97472.84
2022-10-10T11:05:41.996Z,97473.69
2022-10-10T11:08:23.756Z,97467.38
2022-10-10T11:10:59.614Z,97459.28
2022-10-10T11:13:33.625Z,97457.59
2022-10-10T11:16:24.327Z,97446.97
2022-10-10T11:19:08.662Z,97449.19
2022-10-10T11:21:41.935Z,97445.06
2022-10-10T11:24:13.391Z,97444.78
2022-10-10T11:26:45.574Z,97446.84
2022-10-10T11:29:17.683Z,97450.84
2022-10-10T11:31:53.544Z,97450.38
2022-10-10T11:34:25.504Z,97450.09
2022-10-10T11:36:56.305Z,97455.69
2022-10-10T11:39:28.224Z,97446.91
2022-10-10T11:42:00.197Z,97454.03
2022-10-10T11:44:33.690Z,97449.56
2022-10-10T11:47:08.618Z,97445.38
2022-10-10T11:49:42.877Z,97445.22
2022-10-10T11:52:35.905Z,97449.72
2022-10-10T11:55:07.877Z,97442.44
2022-10-10T11:57:40.846Z,97444.09
2022-10-10T12:00:14.483Z,97435.16
2022-10-10T12:02:46.586Z,97436.81
2022-10-10T12:05:22.412Z,97441.13
2022-10-10T12:08:04.508Z,97443.63
2022-10-10T12:10:34.899Z,97436.50
2022-10-10T12:13:09.210Z,97439.16
2022-10-10T12:15:43.513Z,97431.03
2022-10-10T12:18:26.862Z,97432.88
2022-10-10T12:21:06.816Z,97439.84
2022-10-10T12:23:35.558Z,97441.50
2022-10-10T12:26:04.667Z,97435.22
2022-10-10T12:28:38.069Z,97447.50
2022-10-10T12:31:30.317Z,97435.88
2022-10-10T12:34:19.303Z,97443.53
2022-10-10T12:37:12.988Z,97447.03
2022-10-10T12:40:03.366Z,97446.88
2022-10-10T12:42:35.118Z,97441.56
2022-10-10T12:45:04.054Z,97430.94
2022-10-10T12:48:03.230Z,97434.44
2022-10-10T12:50:29.317Z,97427.31
2022-10-10T12:52:59.372Z,97435.28
2022-10-10T12:55:29.829Z,97428.97
2022-10-10T12:58:00.668Z,97432.47
2022-10-10T13:00:38.464Z,97431.63
2022-10-10T13:03:12.915Z,97429.81
2022-10-10T13:05:43.160Z,97430.78
2022-10-10T13:08:15.468Z,97436.78
2022-10-10T13:10:44.718Z,97431.47
2022-10-10T13:13:18.697Z,97434.28
2022-10-10T13:15:53.053Z,97438.59
2022-10-10T13:18:34.800Z,97431.47
2022-10-10T13:21:06.964Z,97430.63
2022-10-10T13:23:37.517Z,97431.47
2022-10-10T13:26:06.931Z,97432.31
2022-10-10T13:28:35.740Z,97431.31
2022-10-10T13:31:05.399Z,97425.00
2022-10-10T13:33:34.868Z,97429.19
2022-10-10T13:36:17.325Z,97435.03
2022-10-10T13:38:47.157Z,97426.91
2022-10-10T13:41:18.286Z,97424.91
2022-10-10T13:43:46.794Z,97428.25
2022-10-10T13:46:22.167Z,97429.09
2022-10-10T13:48:51.682Z,97429.09
2022-10-10T13:51:21.679Z,97423.63
2022-10-10T13:53:53.345Z,97421.78
2022-10-10T13:56:25.730Z,97421.63
2022-10-10T13:58:56.442Z,97412.53
2022-10-10T14:01:33.401Z,97421.38
2022-10-10T14:04:17.423Z,97422.22
2022-10-10T14:06:55.821Z,97425.69
2022-10-10T14:09:28.217Z,97427.53
2022-10-10T14:11:57.290Z,97430.84
2022-10-10T14:14:27.839Z,97426.53
2022-10-10T14:17:00.754Z,97421.91
2022-10-10T14:19:29.903Z,97428.19
2022-10-10T14:22:00.338Z,97424.56
2022-10-10T14:24:29.496Z,97420.06
2022-10-10T14:26:59.361Z,97421.22
2022-10-10T14:29:27.919Z,97430.03
2022-10-10T14:31:57.121Z,97421.75
2022-10-10T14:34:25.768Z,97422.06
2022-10-10T14:36:54.880Z,97423.22
2022-10-10T14:39:25.034Z,97425.03
2022-10-10T14:41:53.791Z,97422.56
2022-10-10T14:44:22.759Z,97422.56
2022-10-10T14:46:51.482Z,97426.38
2022-10-10T14:49:22.092Z,97426.22
2022-10-10T14:51:50.738Z,97421.91
2022-10-10T14:54:19.510Z,97421.91
2022-10-10T14:57:06.966Z,97425.53
2022-10-10T14:59:47.685Z,97426.38
2022-10-10T15:02:20.212Z,97421.06
2022-10-10T15:04:49.016Z,97422.56
2022-10-10T15:07:18.134Z,97422.56
2022-10-10T15:10:17.508Z,97415.41
2022-10-10T15:12:40.324Z,97420.72
2022-10-10T15:15:10.747Z,97423.38
2022-10-10T15:17:39.522Z,97420.91
2022-10-10T15:20:11.061Z,97430.53
2022-10-10T15:22:40.234Z,97424.41
2022-10-10T15:25:10.207Z,97428.88
2022-10-10T15:27:41.454Z,97430.69
2022-10-10T15:30:12.168Z,97431.53
2022-10-10T15:32:41.283Z,97429.88
2022-10-10T15:35:14.796Z,97435.34
2022-10-10T15:37:44.131Z,97442.16
2022-10-10T15:40:14.277Z,97442.31
2022-10-10T15:42:44.529Z,97443.31
2022-10-10T15:45:14.901Z,97447.28
2022-10-10T15:47:51.393Z,97449.47
2022-10-10T15:50:23.602Z,97433.22
2022-10-10T15:52:54.602Z,97432.91
2022-10-10T15:55:23.089Z,97434.56
2022-10-10T15:57:52.796Z,97432.75
2022-10-10T16:00:21.479Z,97438.22
2022-10-10T16:02:50.510Z,97448.00
2022-10-10T16:05:19.403Z,97447.19
2022-10-10T16:07:48.477Z,97451.66
2022-10-10T16:10:17.226Z,97444.69
2022-10-10T16:12:45.702Z,97441.19
2022-10-10T16:15:16.027Z,97445.66
2022-10-10T16:17:44.533Z,97442.19
2022-10-10T16:20:13.392Z,97439.69
2022-10-10T16:22:41.826Z,97451.13
2022-10-10T16:25:21.820Z,97455.63
2022-10-10T16:27:51.841Z,97452.97
2022-10-10T16:30:22.079Z,97457.44
2022-10-10T16:32:50.742Z,97458.44
2022-10-10T16:35:19.250Z,97460.94
2022-10-10T16:37:47.695Z,97463.75
2022-10-10T16:40:16.395Z,97468.06
2022-10-10T16:42:44.871Z,97475.91
2022-10-10T16:45:13.392Z,97470.72
2022-10-10T16:47:43.628Z,97478.56
2022-10-10T16:50:12.421Z,97477.72
2022-10-10T16:52:40.977Z,97479.53
2022-10-10T16:55:11.152Z,97484.69
2022-10-10T16:57:40.152Z,97482.88
2022-10-10T17:00:10.632Z,97489.19
2022-10-10T17:02:41.999Z,97494.50
2022-10-10T17:05:11.854Z,97492.66
2022-10-10T17:07:40.246Z,97488.34
2022-10-10T17:10:09.587Z,97492.66
2022-10-10T17:12:38.087Z,97499.81
2022-10-10T17:15:07.720Z,97500.81
2022-10-10T17:17:36.296Z,97500.81
2022-10-10T17:20:06.872Z,97506.28
2022-10-10T17:22:37.232Z,97503.63
2022-10-10T17:25:06.666Z,97524.88
2022-10-10T17:27:35.944Z,97513.41
2022-10-10T17:30:05.429Z,97509.91
2022-10-10T17:32:33.899Z,97522.22
2022-10-10T17:35:02.514Z,97518.88
2022-10-10T17:37:31.119Z,97529.34
2022-10-10T17:40:01.097Z,97519.72
2022-10-10T17:42:30.558Z,97519.72
2022-10-10T17:45:00.266Z,97527.69
2022-10-10T17:47:28.833Z,97526.84
2022-10-10T17:49:57.385Z,97530.34
2022-10-10T17:52:26.923Z,97526.84
2022-10-10T17:54:55.482Z,97518.03
2022-10-10T17:57:25.215Z,97530.34
2022-10-10T17:59:53.719Z,97535.66
2022-10-10T18:02:22.235Z,97534.00
2022-10-10T18:04:50.807Z,97532.31
2022-10-10T18:07:19.834Z,97527.84
2022-10-10T18:09:51.377Z,97535.16
2022-10-10T18:12:20.069Z,97540.47
2022-10-10T18:14:50.195Z,97539.66
2022-10-10T18:17:18.841Z,97547.63
2022-10-10T18:19:47.499Z,97544.13
2022-10-10T18:22:16.683Z,97540.47
2022-10-10T18:24:45.109Z,97546.78
2022-10-10T18:27:13.758Z,97549.59
2022-10-10T18:29:42.469Z,97540.63
2022-10-10T18:32:12.116Z,97548.75
2022-10-10T18:34:40.580Z,97544.44
2022-10-10T18:37:10.108Z,97550.59
2022-10-10T18:39:40.214Z,97556.88
2022-10-10T18:42:08.844Z,97556.88
2022-10-10T18:44:37.358Z,97553.38
2022-10-10T18:47:05.969Z,97549.91
2022-10-10T18:49:35.835Z,97556.19
2022-10-10T18:52:04.467Z,97554.84
2022-10-10T18:54:35.317Z,97547.03
2022-10-10T18:57:04.069Z,97550.66
2022-10-10T18:59:33.107Z,97551.50
2022-10-10T19:02:01.726Z,97554.16
2022-10-10T19:04:30.297Z,97547.19
2022-10-10T19:07:02.061Z,97553.31
2022-10-10T19:09:30.901Z,97548.16
2022-10-10T19:11:59.470Z,97551.81
2022-10-10T19:14:28.102Z,97549.00
2022-10-10T19:16:56.710Z,97548.16
2022-10-10T19:19:25.329Z,97553.63
2022-10-10T19:21:53.996Z,97543.16
2022-10-10T19:24:23.957Z,97537.84
2022-10-10T19:26:56.271Z,97546.66
2022-10-10T19:29:25.909Z,97538.00
2022-10-10T19:31:54.705Z,97546.94
2022-10-10T19:34:23.806Z,97547.78
2022-10-10T19:36:52.345Z,97551.44
2022-10-10T19:39:20.855Z,97551.28
2022-10-10T19:41:50.692Z,97559.41
2022-10-10T19:44:19.329Z,97562.22
2022-10-10T19:46:47.887Z,97563.19
2022-10-10T19:49:16.660Z,97552.03
2022-10-10T19:51:45.114Z,97556.22
2022-10-10T19:54:14.230Z,97557.03
2022-10-10T19:56:43.152Z,97558.03
2022-10-10T19:59:13.035Z,97561.69
2022-10-10T20:01:41.880Z,97560.84
2022-10-10T20:04:10.575Z,97575.09
2022-10-10T20:06:41.131Z,97571.78
2022-10-10T20:09:10.958Z,97577.91
2022-10-10T20:11:40.215Z,97577.09
2022-10-10T20:14:09.789Z,97590.50
2022-10-10T20:16:39.678Z,97588.69
2022-10-10T20:19:08.671Z,97590.97
2022-10-10T20:21:37.278Z,97586.34
2022-10-10T20:24:10.630Z,97589.81
2022-10-10T20:26:39.260Z,97587.47
2022-10-10T20:29:08.895Z,97588.47
2022-10-10T20:31:39.531Z,97594.47
2022-10-10T20:34:08.649Z,97590.13
2022-10-10T20:36:39.136Z,97602.56
2022-10-10T20:39:09.248Z,97604.25
2022-10-10T20:41:38.964Z,97601.75
2022-10-10T20:44:08.514Z,97603.88
2022-10-10T20:46:39.731Z,97608.19
2022-10-10T20:49:11.526Z,97618.13
2022-10-10T20:51:40.156Z,97616.44
2022-10-10T20:54:09.241Z,97611.16
2022-10-10T20:56:38.265Z,97608.50
2022-10-10T20:59:07.351Z,97601.50
2022-10-10T21:01:36.499Z,97612.13
2022-10-10T21:04:09.969Z,97612.13
2022-10-10T21:06:39.900Z,97614.09
2022-10-10T21:09:10.191Z,97611.59
2022-10-10T21:11:39.808Z,97607.94
2022-10-10T21:14:08.805Z,97613.41
2022-10-10T21:16:39.015Z,97608.09
2022-10-10T21:19:11.077Z,97614.41
2022-10-10T21:21:40.583Z,97609.91
2022-10-10T21:24:12.063Z,97616.38
2022-10-10T21:26:41.211Z,97618.19
2022-10-10T21:29:10.548Z,97619.03
2022-10-10T21:31:40.509Z,97629.63
2022-10-10T21:34:15.582Z,97631.47
2022-10-10T21:36:44.054Z,97642.22
2022-10-10T21:39:12.844Z,97635.25
2022-10-10T21:41:41.586Z,97641.53
2022-10-10T21:44:11.282Z,97636.38
2022-10-10T21:46:39.933Z,97641.84
2022-10-10T21:49:11.660Z,97641.84
2022-10-10T21:51:42.291Z,97631.22
2022-10-10T21:54:11.514Z,97638.34
2022-10-10T21:56:40.029Z,97635.84
2022-10-10T21:59:08.578Z,97632.34
2022-10-10T22:01:37.683Z,97632.34
2022-10-10T22:04:06.825Z,97624.53
2022-10-10T22:06:36.739Z,97636.13
2022-10-10T22:09:05.399Z,97632.50
2022-10-10T22:11:35.256Z,97633.47
2022-10-10T22:14:04.833Z,97628.31
2022-10-10T22:16:33.769Z,97639.91
2022-10-10T22:19:02.914Z,97643.41
2022-10-10T22:21:32.646Z,97647.06
2022-10-10T22:24:06.044Z,97646.38
2022-10-10T22:26:35.200Z,97647.19
2022-10-10T22:29:04.135Z,97645.53
2022-10-10T22:31:35.408Z,97652.50
2022-10-10T22:34:03.905Z,97658.91
2022-10-10T22:36:32.355Z,97664.22
2022-10-10T22:39:02.163Z,97660.88
2022-10-10T22:41:30.559Z,97655.56
2022-10-10T22:43:58.936Z,97663.72
2022-10-10T22:46:27.335Z,97665.53
2022-10-10T22:48:55.874Z,97658.56
2022-10-10T22:51:24.444Z,97658.56
2022-10-10T22:53:52.907Z,97668.47
2022-10-10T22:56:22.651Z,97666.66
2022-10-10T22:58:52.179Z,97672.94
2022-10-10T23:01:22.607Z,97674.06
2022-10-10T23:03:51.430Z,97664.28
2022-10-10T23:06:19.812Z,97664.28
2022-10-10T23:08:48.158Z,97656.47
2022-10-10T23:11:16.662Z,97661.78
2022-10-10T23:13:46.473Z,97667.09
2022-10-10T23:16:15.239Z,97684.84
2022-10-10T23:18:43.615Z,97680.50
2022-10-10T23:21:11.930Z,97684.97
2022-10-10T23:23:40.391Z,97693.94
2022-10-10T23:26:10.246Z,97693.09
2022-10-10T23:28:51.814Z,97693.94
2022-10-10T23:31:32.975Z,97720.47
2022-10-10T23:34:12.695Z,97719.47
2022-10-10T23:36:53.521Z,97717.94
2022-10-10T23:39:34.068Z,97719.78
2022-10-10T23:42:15.881Z,97711.97
2022-10-10T23:44:56.839Z,97711.13
2022-10-10T23:47:36.650Z,97714.75
2022-10-10T23:50:16.399Z,97716.56
2022-10-10T23:52:56.202Z,97710.44
2022-10-10T23:55:36.217Z,97719.38
2022-10-10T23:58:17.499Z,97723.84
